Time;durP1;ratioP1;P1;durP2;ratioP2;P2;SDS_P1;SDS_P2;PMS_P1;PMS_P2;Temp;Humidity;BMP_temperature;BMP_pressure;BME280_temperature;BME280_humidity;BME280_pressure;Samples;Min_cycle;Max_cycle;Signal;HPM_P1;HPM_P2
2023/10/04 00:00:55;;;;;;;8.60;2.70;;;13.30;99.90;;;;;;5096934;28;20183;-75
2023/10/04 00:03:22;;;;;;;10.87;2.93;;;13.30;99.90;;;;;;5096984;28;20171;-76
2023/10/04 00:05:48;;;;;;;14.83;2.93;;;13.30;99.90;;;;;;5096815;28;20176;-77
2023/10/04 00:08:14;;;;;;;9.33;3.13;;;13.30;99.90;;;;;;5096625;28;20174;-76
2023/10/04 00:10:39;;;;;;;11.17;3.00;;;13.40;99.90;;;;;;5096797;28;20205;-76
2023/10/04 00:13:05;;;;;;;13.30;3.07;;;13.30;99.90;;;;;;5096876;28;20199;-77
2023/10/04 00:15:31;;;;;;;11.37;3.33;;;13.30;99.90;;;;;;5096585;28;20251;-76
2023/10/04 00:17:57;;;;;;;9.10;2.73;;;13.30;99.90;;;;;;5096729;28;20164;-77
2023/10/04 00:20:31;;;;;;;8.50;2.57;;;13.30;99.90;;;;;;5095539;28;20172;-77
2023/10/04 00:22:57;;;;;;;9.27;3.10;;;13.30;99.90;;;;;;5096415;28;20690;-75
2023/10/04 00:25:23;;;;;;;10.73;2.77;;;13.30;99.90;;;;;;5096741;28;20168;-77
2023/10/04 00:27:55;;;;;;;13.17;2.60;;;13.20;99.90;;;;;;5096623;28;20232;-77
2023/10/04 00:30:20;;;;;;;12.93;3.43;;;13.20;99.90;;;;;;5096348;28;20243;-77
2023/10/04 00:32:46;;;;;;;9.93;2.40;;;13.20;99.90;;;;;;5096504;28;20243;-76
2023/10/04 00:35:17;;;;;;;9.43;2.83;;;13.20;99.90;;;;;;5096482;28;20258;-77
2023/10/04 00:37:44;;;;;;;8.53;2.90;;;13.20;99.90;;;;;;5096801;28;20286;-76
2023/10/04 00:40:18;;;;;;;12.60;2.93;;;13.20;99.90;;;;;;5096726;28;20161;-77
2023/10/04 00:42:49;;;;;;;10.83;3.50;;;13.10;99.90;;;;;;5096508;28;20550;-77
2023/10/04 00:45:16;;;;;;;9.43;2.80;;;13.20;99.90;;;;;;5096080;28;20196;-77
2023/10/04 00:47:51;;;;;;;11.33;2.97;;;13.10;99.90;;;;;;5096367;28;20164;-77
2023/10/04 00:50:31;;;;;;;7.57;2.77;;;13.10;99.90;;;;;;5096504;28;20164;-75
2023/10/04 00:53:10;;;;;;;11.33;2.87;;;13.20;99.90;;;;;;5096199;28;20204;-75
2023/10/04 00:55:41;;;;;;;9.47;3.03;;;13.10;99.90;;;;;;5096259;28;20178;-76
2023/10/04 00:58:09;;;;;;;13.00;2.93;;;13.10;99.90;;;;;;5096097;28;20213;-76
2023/10/04 01:00:39;;;;;;;8.80;2.70;;;13.10;99.90;;;;;;5095637;28;20658;-75
2023/10/04 01:03:07;;;;;;;13.50;2.57;;;13.10;99.90;;;;;;5096031;28;20302;-75
2023/10/04 01:05:38;;;;;;;10.43;2.77;;;13.10;99.90;;;;;;5094259;28;20183;-77
2023/10/04 01:08:05;;;;;;;8.53;2.77;;;13.10;99.90;;;;;;5095506;28;20184;-77
2023/10/04 01:10:33;;;;;;;9.50;2.83;;;13.10;99.90;;;;;;5095851;28;20179;-75
2023/10/04 01:13:00;;;;;;;6.13;2.70;;;13.10;99.90;;;;;;5095353;28;20200;-77
2023/10/04 01:18:05;;;;;;;13.07;2.80;;;13.10;99.90;;;;;;5095824;28;20176;-76
2023/10/04 01:20:33;;;;;;;7.93;2.60;;;13.20;99.90;;;;;;5095773;28;20714;-75
2023/10/04 01:23:05;;;;;;;8.77;2.87;;;13.10;99.90;;;;;;5095529;28;20230;-75
2023/10/04 01:25:32;;;;;;;8.37;2.67;;;13.10;99.90;;;;;;5095644;28;20709;-75
2023/10/04 01:27:59;;;;;;;7.93;2.73;;;13.20;99.90;;;;;;5095296;28;20218;-76
2023/10/04 01:30:25;;;;;;;9.43;2.80;;;13.20;99.90;;;;;;5095609;28;20619;-75
2023/10/04 01:32:51;;;;;;;11.10;3.30;;;13.20;99.90;;;;;;5095514;28;20203;-76
2023/10/04 01:35:23;;;;;;;8.43;2.77;;;13.20;99.90;;;;;;5094326;28;20179;-76
2023/10/04 01:37:50;;;;;;;8.17;2.57;;;13.30;99.90;;;;;;5095443;28;20160;-76
2023/10/04 01:40:18;;;;;;;6.27;2.80;;;13.30;99.90;;;;;;5095456;28;20217;-77
2023/10/04 01:42:45;;;;;;;7.60;2.77;;;13.40;99.90;;;;;;5095073;28;20189;-76
2023/10/04 01:45:15;;;;;;;11.83;2.67;;;13.40;99.90;;;;;;5095281;28;20168;-75
2023/10/04 01:47:40;;;;;;;9.93;2.70;;;13.40;99.90;;;;;;5095233;28;20673;-76
2023/10/04 01:50:09;;;;;;;11.70;2.93;;;13.30;99.90;;;;;;5095299;28;20164;-75
2023/10/04 01:52:35;;;;;;;7.80;2.40;;;13.30;99.90;;;;;;5094943;28;20203;-75
2023/10/04 01:55:01;;;;;;;14.07;2.93;;;13.20;99.90;;;;;;5095141;28;20494;-76
2023/10/04 01:57:28;;;;;;;6.57;2.67;;;13.20;99.90;;;;;;5094815;28;20164;-76
2023/10/04 01:59:54;;;;;;;8.57;2.50;;;13.20;99.90;;;;;;5094974;28;20262;-76
2023/10/04 02:02:21;;;;;;;6.53;2.80;;;13.20;99.90;;;;;;5095022;28;20268;-76
2023/10/04 02:04:52;;;;;;;7.90;2.60;;;13.30;99.90;;;;;;5094893;28;20670;-76
2023/10/04 02:07:21;;;;;;;9.60;2.70;;;13.20;99.90;;;;;;5094807;28;20171;-75
2023/10/04 02:09:48;;;;;;;8.27;2.57;;;13.20;99.90;;;;;;5094863;28;20175;-77
2023/10/04 02:12:13;;;;;;;11.33;3.00;;;13.20;99.90;;;;;;5094407;28;20207;-76
2023/10/04 02:14:40;;;;;;;6.80;2.50;;;13.20;99.90;;;;;;5094810;28;20254;-76
2023/10/04 02:17:08;;;;;;;8.50;2.80;;;13.20;99.90;;;;;;5094317;28;20229;-76
2023/10/04 02:19:34;;;;;;;8.60;2.73;;;13.20;99.90;;;;;;5094365;28;20171;-76
2023/10/04 02:22:00;;;;;;;7.87;2.33;;;13.20;99.90;;;;;;5094600;28;20264;-76
2023/10/04 02:24:26;;;;;;;8.10;2.50;;;13.20;99.90;;;;;;5094546;28;20533;-76
2023/10/04 02:26:52;;;;;;;6.13;2.60;;;13.20;99.90;;;;;;5094081;28;20176;-75
2023/10/04 02:29:18;;;;;;;7.57;2.67;;;13.20;99.90;;;;;;5094384;28;20620;-76
2023/10/04 02:31:44;;;;;;;8.93;2.60;;;13.20;99.90;;;;;;5094388;28;20337;-74
2023/10/04 02:34:11;;;;;;;8.70;2.63;;;13.20;99.90;;;;;;5094348;28;20172;-76
2023/10/04 02:36:37;;;;;;;6.23;2.30;;;13.20;99.90;;;;;;5094487;28;20649;-76
2023/10/04 02:39:10;;;;;;;7.93;2.67;;;13.20;99.90;;;;;;5094340;28;20168;-76
2023/10/04 02:41:36;;;;;;;8.93;2.47;;;13.20;99.90;;;;;;5093784;28;20179;-75
2023/10/04 02:44:02;;;;;;;11.30;2.70;;;13.20;99.90;;;;;;5094223;28;20168;-76
2023/10/04 02:46:28;;;;;;;9.97;2.77;;;13.20;99.90;;;;;;5094114;28;20658;-75
2023/10/04 02:48:54;;;;;;;9.53;2.67;;;13.10;99.90;;;;;;5093791;28;20180;-74
2023/10/04 02:51:20;;;;;;;8.63;2.30;;;13.20;99.90;;;;;;5093943;28;20631;-76
2023/10/04 02:53:45;;;;;;;7.73;2.67;;;13.20;99.90;;;;;;5094019;28;20259;-76
2023/10/04 02:56:11;;;;;;;9.83;2.70;;;13.10;99.90;;;;;;5093474;28;20251;-74
2023/10/04 02:58:37;;;;;;;10.57;2.90;;;13.10;99.90;;;;;;5093791;28;20176;-75
2023/10/04 03:01:03;;;;;;;11.60;2.57;;;13.10;99.90;;;;;;5092626;28;20228;-75
2023/10/04 03:03:30;;;;;;;10.67;2.90;;;13.00;99.90;;;;;;5093945;28;20180;-76
2023/10/04 03:05:57;;;;;;;9.73;2.97;;;13.00;99.90;;;;;;5093759;28;20156;-77
2023/10/04 03:08:23;;;;;;;15.00;3.20;;;13.00;99.90;;;;;;5092382;28;20244;-75
2023/10/04 03:10:50;;;;;;;10.13;2.70;;;12.90;99.90;;;;;;5093365;28;20168;-77
2023/10/04 03:13:23;;;;;;;8.67;2.83;;;12.90;99.90;;;;;;5092242;28;20200;-75
2023/10/04 03:15:50;;;;;;;7.40;2.70;;;12.80;99.90;;;;;;5093629;28;20179;-74
2023/10/04 03:18:20;;;;;;;13.87;3.73;;;12.70;99.90;;;;;;5093318;28;20167;-74
2023/10/04 03:23:40;;;;;;;10.20;3.30;;;12.70;99.90;;;;;;5093260;28;20219;-75
2023/10/04 03:26:06;;;;;;;9.77;2.90;;;12.60;99.90;;;;;;5093306;28;20199;-75
2023/10/04 03:28:33;;;;;;;9.97;3.17;;;12.60;99.90;;;;;;5092635;28;20175;-75
2023/10/04 03:31:03;;;;;;;11.50;2.90;;;12.50;99.90;;;;;;5093126;28;20180;-74
2023/10/04 03:33:35;;;;;;;8.03;2.67;;;12.60;99.90;;;;;;5092773;28;20579;-74
2023/10/04 03:36:04;;;;;;;11.83;3.20;;;12.50;99.90;;;;;;5093356;28;20178;-76
2023/10/04 03:38:35;;;;;;;11.97;3.10;;;12.50;99.90;;;;;;5092686;28;20172;-74
2023/10/04 03:41:03;;;;;;;10.87;3.50;;;12.50;99.90;;;;;;5092928;28;20180;-74
2023/10/04 03:43:30;;;;;;;16.23;3.47;;;12.50;99.90;;;;;;5093198;28;20176;-74
2023/10/04 03:45:55;;;;;;;9.93;3.00;;;12.40;99.90;;;;;;5092784;28;20190;-74
2023/10/04 03:48:23;;;;;;;12.27;3.13;;;12.50;99.90;;;;;;5093044;28;20175;-76
2023/10/04 03:50:50;;;;;;;14.43;3.23;;;12.40;99.90;;;;;;5092937;28;20172;-76
2023/10/04 03:53:20;;;;;;;11.73;2.90;;;12.50;99.90;;;;;;5092349;28;20222;-76
2023/10/04 03:55:46;;;;;;;6.57;3.03;;;12.40;99.90;;;;;;5092672;28;20164;-76
2023/10/04 03:58:12;;;;;;;8.13;3.33;;;12.40;99.90;;;;;;5092811;28;20665;-76
2023/10/04 04:00:39;;;;;;;9.83;3.67;;;12.40;99.90;;;;;;5092958;28;20206;-74
2023/10/04 04:03:06;;;;;;;12.70;3.33;;;12.40;99.90;;;;;;5091325;28;20701;-74
2023/10/04 04:05:38;;;;;;;13.70;3.47;;;12.30;99.90;;;;;;5092617;28;20213;-75
2023/10/04 04:08:04;;;;;;;9.23;3.20;;;12.30;99.90;;;;;;5092563;28;20168;-75
2023/10/04 04:10:31;;;;;;;11.87;3.30;;;12.30;99.90;;;;;;5092860;28;20164;-75
2023/10/04 04:12:57;;;;;;;9.80;3.43;;;12.40;99.90;;;;;;5092367;28;20195;-75
2023/10/04 04:15:23;;;;;;;12.23;3.20;;;12.30;99.90;;;;;;5092528;28;20168;-75
2023/10/04 04:17:50;;;;;;;10.53;3.63;;;12.20;99.90;;;;;;5092395;28;20183;-75
2023/10/04 04:20:16;;;;;;;9.43;3.23;;;12.20;99.90;;;;;;5092635;28;20255;-75
2023/10/04 04:22:55;;;;;;;14.87;3.77;;;12.30;99.90;;;;;;5091727;28;20636;-75
2023/10/04 04:25:23;;;;;;;10.50;3.17;;;12.20;99.90;;;;;;5092810;28;20183;-76
2023/10/04 04:27:52;;;;;;;17.17;3.57;;;12.20;99.90;;;;;;5091064;28;20168;-74
2023/10/04 04:30:23;;;;;;;15.73;3.43;;;12.20;99.90;;;;;;5092547;28;20172;-76
2023/10/04 04:32:56;;;;;;;14.37;3.77;;;12.20;99.90;;;;;;5092011;28;20208;-75
2023/10/04 04:37:57;;;;;;;12.10;3.20;;;12.20;99.90;;;;;;5091915;28;20761;-76
2023/10/04 04:40:26;;;;;;;13.60;3.87;;;12.20;99.90;;;;;;5092776;28;20168;-76
2023/10/04 04:42:52;;;;;;;12.37;3.10;;;12.20;99.90;;;;;;5096080;28;20222;-76
2023/10/04 04:45:22;;;;;;;14.70;3.57;;;12.10;99.90;;;;;;5095914;28;20160;-76
2023/10/04 04:47:49;;;;;;;9.40;2.97;;;12.10;99.90;;;;;;5095681;28;20164;-76
2023/10/04 04:50:16;;;;;;;13.13;3.67;;;12.10;99.90;;;;;;5094319;28;20190;-75
2023/10/04 04:52:42;;;;;;;14.03;3.70;;;12.10;99.90;;;;;;5095067;28;20206;-76
2023/10/04 04:55:09;;;;;;;14.00;3.60;;;12.00;99.90;;;;;;5096085;28;20168;-76
2023/10/04 04:57:35;;;;;;;9.93;3.40;;;12.00;99.90;;;;;;5095571;28;20263;-76
2023/10/04 05:00:19;;;;;;;11.23;3.40;;;12.00;99.90;;;;;;5095556;28;20172;-75
2023/10/04 05:02:45;;;;;;;9.97;3.20;;;12.00;99.90;;;;;;5094682;28;20600;-76
2023/10/04 05:05:11;;;;;;;11.77;3.50;;;11.90;99.90;;;;;;5093741;28;20203;-77
2023/10/04 05:07:38;;;;;;;11.23;3.50;;;12.00;99.90;;;;;;5095490;28;20213;-75
2023/10/04 05:10:04;;;;;;;12.80;3.80;;;12.00;99.90;;;;;;5095061;28;20175;-77
2023/10/04 05:12:30;;;;;;;11.03;3.63;;;12.00;99.90;;;;;;5094818;28;20208;-76
2023/10/04 05:14:56;;;;;;;12.90;3.63;;;11.90;99.90;;;;;;5094193;28;20512;-77
2023/10/04 05:17:21;;;;;;;14.03;3.70;;;11.90;99.90;;;;;;5095471;28;20167;-77
2023/10/04 05:19:47;;;;;;;9.30;3.40;;;11.80;99.90;;;;;;5094660;28;20168;-76
2023/10/04 05:22:12;;;;;;;9.50;3.47;;;11.80;99.90;;;;;;5094787;28;20220;-78
2023/10/04 05:24:38;;;;;;;10.73;3.40;;;11.80;99.90;;;;;;5094962;28;20176;-77
2023/10/04 05:27:05;;;;;;;11.13;3.73;;;11.80;99.90;;;;;;5094624;28;20179;-76
2023/10/04 05:29:32;;;;;;;11.30;3.17;;;11.80;99.90;;;;;;5094782;28;20187;-76
2023/10/04 05:31:58;;;;;;;13.13;3.20;;;11.80;99.90;;;;;;5094849;28;20246;-76
2023/10/04 05:34:24;;;;;;;10.63;4.27;;;11.80;99.90;;;;;;5092832;28;20172;-78
2023/10/04 05:36:50;;;;;;;12.83;3.73;;;11.80;99.90;;;;;;5094344;28;20526;-76
2023/10/04 05:39:16;;;;;;;14.27;3.70;;;11.80;99.90;;;;;;5094107;28;20254;-78
2023/10/04 05:41:41;;;;;;;17.80;4.10;;;11.70;99.90;;;;;;5094096;28;20204;-78
2023/10/04 05:44:08;;;;;;;20.33;3.93;;;11.70;99.90;;;;;;5094097;28;20168;-75
2023/10/04 05:46:34;;;;;;;14.90;3.73;;;11.80;99.90;;;;;;5094333;28;20203;-77
2023/10/04 05:49:00;;;;;;;17.00;3.97;;;11.80;99.90;;;;;;5093716;28;20380;-78
2023/10/04 05:51:26;;;;;;;13.57;3.30;;;11.80;99.90;;;;;;5093963;28;20686;-78
2023/10/04 05:53:52;;;;;;;16.53;4.10;;;11.80;99.90;;;;;;5093701;28;20179;-77
2023/10/04 05:56:20;;;;;;;12.20;3.83;;;11.80;99.90;;;;;;5093924;28;20164;-76
2023/10/04 05:58:46;;;;;;;15.90;3.93;;;11.80;99.90;;;;;;5093462;28;20176;-75
2023/10/04 06:01:19;;;;;;;14.40;3.57;;;11.90;99.90;;;;;;5094031;28;20632;-76
2023/10/04 06:03:44;;;;;;;14.50;3.70;;;11.90;99.90;;;;;;5093764;28;20172;-77
2023/10/04 06:06:10;;;;;;;15.20;3.70;;;12.00;99.90;;;;;;5094151;28;20175;-76
2023/10/04 06:08:36;;;;;;;11.50;3.90;;;12.00;99.90;;;;;;5092468;28;20266;-77
2023/10/04 06:11:02;;;;;;;13.07;3.53;;;12.00;99.90;;;;;;5093906;28;20213;-76
2023/10/04 06:13:28;;;;;;;17.47;3.97;;;12.00;99.90;;;;;;5093002;28;20207;-76
2023/10/04 06:15:55;;;;;;;18.27;4.13;;;12.10;99.90;;;;;;5093783;28;20229;-78
2023/10/04 06:18:22;;;;;;;21.00;4.10;;;12.20;99.90;;;;;;5092828;28;20175;-76
2023/10/04 06:20:49;;;;;;;14.90;3.97;;;12.30;99.90;;;;;;5093483;28;20164;-77
2023/10/04 06:23:17;;;;;;;11.47;3.20;;;12.30;99.90;;;;;;5092895;28;20232;-77
2023/10/04 06:25:48;;;;;;;16.03;3.90;;;12.40;99.90;;;;;;5093401;28;20510;-77
2023/10/04 06:28:14;;;;;;;16.73;3.87;;;12.50;99.90;;;;;;5092149;28;20270;-76
2023/10/04 06:30:42;;;;;;;21.73;3.63;;;12.50;99.90;;;;;;5093539;28;20210;-75
2023/10/04 06:33:09;;;;;;;18.07;4.17;;;12.70;99.90;;;;;;5092936;28;20195;-76
2023/10/04 06:35:34;;;;;;;15.37;4.00;;;12.70;99.90;;;;;;5093777;28;20160;-74
2023/10/04 06:38:04;;;;;;;10.07;3.90;;;12.80;99.90;;;;;;5093551;28;20256;-76
2023/10/04 06:40:33;;;;;;;11.03;3.43;;;12.90;99.90;;;;;;5092938;28;20217;-76
2023/10/04 06:43:01;;;;;;;11.60;3.77;;;13.00;99.90;;;;;;5093224;28;20178;-77
2023/10/04 06:45:27;;;;;;;14.60;4.33;;;13.10;99.90;;;;;;5093113;28;20190;-76
2023/10/04 06:47:58;;;;;;;12.23;3.73;;;13.30;99.90;;;;;;5093052;28;20627;-76
2023/10/04 06:50:28;;;;;;;21.07;4.03;;;13.70;99.90;;;;;;5093344;28;20164;-77
2023/10/04 06:52:58;;;;;;;14.30;3.40;;;13.90;99.90;;;;;;5093131;28;20199;-77
2023/10/04 06:55:24;;;;;;;15.00;4.00;;;14.10;99.90;;;;;;5093469;28;20160;-77
2023/10/04 06:57:50;;;;;;;10.93;3.93;;;14.50;99.90;;;;;;5093257;28;20168;-78
2023/10/04 07:00:18;;;;;;;15.90;3.83;;;15.30;99.90;;;;;;5093468;28;20632;-79
2023/10/04 07:02:54;;;;;;;12.17;3.53;;;16.20;99.90;;;;;;5093161;28;20203;-79
2023/10/04 07:05:29;;;;;;;13.67;3.43;;;16.80;99.90;;;;;;5092117;28;20163;-77
2023/10/04 07:07:56;;;;;;;13.55;3.60;;;17.30;99.90;;;;;;5093482;28;20187;-77
2023/10/04 07:10:23;;;;;;;8.40;3.20;;;17.70;99.90;;;;;;5093647;28;20184;-78
2023/10/04 07:12:55;;;;;;;12.77;3.40;;;18.30;99.90;;;;;;5093026;28;20206;-78
2023/10/04 07:15:21;;;;;;;13.15;3.97;;;18.60;99.90;;;;;;5092941;28;20196;-79
2023/10/04 07:17:48;;;;;;;10.00;3.90;;;18.70;99.90;;;;;;5093227;28;20164;-78
2023/10/04 07:20:15;;;;;;;10.57;3.33;;;19.30;99.90;;;;;;5092083;28;20178;-78
2023/10/04 07:22:59;;;;;;;7.28;3.45;;;19.60;99.90;;;;;;5091531;28;20223;-79
2023/10/04 07:25:32;;;;;;;10.73;3.70;;;19.70;99.90;;;;;;5093553;28;20243;-77
2023/10/04 07:28:02;;;;;;;9.23;3.40;;;20.20;99.90;;;;;;5093678;28;20232;-79
2023/10/04 07:30:29;;;;;;;13.70;3.78;;;20.50;99.90;;;;;;5082629;28;20186;-79
2023/10/04 07:32:55;;;;;;;9.05;3.05;;;21.20;99.90;;;;;;5081161;28;20206;-76
2023/10/04 07:35:24;;;;;;;7.15;3.42;;;21.10;99.90;;;;;;5085035;28;20176;-81
2023/10/04 07:37:50;;;;;;;9.80;3.85;;;21.40;99.90;;;;;;5083163;28;20257;-81
2023/10/04 07:40:17;;;;;;;9.27;3.30;;;21.10;99.90;;;;;;5083292;28;20203;-80
2023/10/04 07:42:54;;;;;;;9.38;3.78;;;21.30;99.90;;;;;;5085177;28;20179;-79
2023/10/04 07:45:21;;;;;;;9.30;3.67;;;21.40;99.90;;;;;;5093541;28;20527;-79
2023/10/04 07:47:47;;;;;;;11.45;3.90;;;22.00;98.90;;;;;;5089216;28;20184;-78
2023/10/04 07:50:15;;;;;;;9.60;3.85;;;22.70;97.80;;;;;;5083327;28;20639;-78
2023/10/04 07:52:42;;;;;;;9.32;3.60;;;22.90;96.50;;;;;;5074661;28;20294;-79
2023/10/04 07:55:14;;;;;;;9.45;3.28;;;23.50;95.30;;;;;;5070730;28;20580;-79
2023/10/04 07:57:42;;;;;;;16.90;4.30;;;23.20;95.80;;;;;;5071701;28;20701;-77
2023/10/04 08:00:14;;;;;;;12.48;3.42;;;23.20;94.60;;;;;;5074942;28;20218;-78
2023/10/04 08:02:49;;;;;;;10.63;3.60;;;23.00;95.90;;;;;;5071265;28;20187;-80
2023/10/04 08:05:20;;;;;;;11.75;3.65;;;22.70;96.40;;;;;;5072913;28;20662;-79
2023/10/04 08:07:54;;;;;;;15.95;4.63;;;22.80;95.70;;;;;;5073062;28;20177;-78
2023/10/04 08:10:25;;;;;;;14.52;3.67;;;22.90;96.50;;;;;;5070883;28;20173;-78
2023/10/04 08:12:53;;;;;;;12.75;3.83;;;23.30;95.80;;;;;;5071461;28;20212;-78
2023/10/04 08:15:19;;;;;;;13.68;3.80;;;24.00;94.20;;;;;;5076017;28;20640;-78
2023/10/04 08:17:48;;;;;;;16.73;3.95;;;23.70;94.00;;;;;;5098009;28;20164;-79
2023/10/04 08:20:18;;;;;;;11.20;4.03;;;23.10;95.40;;;;;;5097256;28;20176;-81
2023/10/04 08:22:44;;;;;;;8.70;3.58;;;23.60;95.30;;;;;;5096953;28;20310;-81
2023/10/04 08:25:19;;;;;;;10.75;3.70;;;24.20;92.40;;;;;;5100302;28;20168;-79
2023/10/04 08:27:45;;;;;;;11.35;4.30;;;24.00;92.90;;;;;;5096225;28;20155;-78
2023/10/04 08:30:12;;;;;;;13.90;4.18;;;24.00;93.20;;;;;;5101624;28;20650;-81
2023/10/04 08:32:41;;;;;;;11.68;4.00;;;23.90;93.40;;;;;;5101476;28;20208;-80
2023/10/04 08:35:08;;;;;;;12.00;4.60;;;24.20;93.50;;;;;;5092784;28;20191;-79
2023/10/04 08:37:34;;;;;;;9.60;3.92;;;24.80;91.50;;;;;;5096044;28;20168;-77
2023/10/04 08:40:00;;;;;;;10.20;3.70;;;24.70;91.50;;;;;;5095353;28;20228;-78
2023/10/04 08:42:25;;;;;;;9.43;4.15;;;24.50;93.00;;;;;;5084731;28;20184;-79
2023/10/04 08:44:53;;;;;;;10.95;3.90;;;24.40;92.20;;;;;;5086449;28;20168;-78
2023/10/04 08:47:19;;;;;;;10.55;4.10;;;24.70;92.30;;;;;;5096340;28;20639;-79
2023/10/04 08:49:53;;;;;;;9.68;3.97;;;24.70;91.70;;;;;;5097007;28;20258;-79
2023/10/04 08:52:36;;;;;;;12.27;4.30;;;24.30;91.90;;;;;;5098748;28;20195;-79
2023/10/04 08:55:07;;;;;;;10.43;4.05;;;24.20;93.40;;;;;;5094659;28;20176;-80
2023/10/04 08:57:39;;;;;;;8.77;3.92;;;23.90;93.20;;;;;;5097254;28;20172;-81
2023/10/04 09:00:18;;;;;;;8.73;4.05;;;23.30;94.50;;;;;;5106120;28;20172;-79
2023/10/04 09:02:47;;;;;;;9.43;3.83;;;22.70;96.60;;;;;;5115060;28;20183;-80
2023/10/04 09:05:17;;;;;;;11.18;4.05;;;22.70;97.60;;;;;;5086523;28;20243;-80
2023/10/04 09:07:43;;;;;;;10.05;4.03;;;23.10;96.70;;;;;;5081628;28;20283;-80
2023/10/04 09:10:15;;;;;;;15.57;4.10;;;23.30;96.10;;;;;;5083961;28;20192;-78
2023/10/04 09:12:47;;;;;;;10.88;4.05;;;23.50;96.00;;;;;;5094111;28;20295;-78
2023/10/04 09:15:13;;;;;;;9.82;4.18;;;23.20;95.70;;;;;;5103385;28;20172;-83
2023/10/04 09:17:47;;;;;;;10.15;3.88;;;23.00;96.70;;;;;;5096832;28;20195;-79
2023/10/04 09:20:16;;;;;;;13.15;4.10;;;23.10;96.80;;;;;;5077535;28;20196;-78
2023/10/04 09:22:43;;;;;;;9.85;4.15;;;23.00;97.30;;;;;;5091228;28;20224;-77
2023/10/04 09:25:10;;;;;;;11.70;4.30;;;22.60;97.10;;;;;;5077786;28;20176;-74
2023/10/04 09:27:38;;;;;;;12.93;4.20;;;22.50;97.80;;;;;;5074194;28;20202;-77
2023/10/04 09:30:25;;;;;;;12.32;4.38;;;22.20;98.60;;;;;;5082710;28;20161;-77
2023/10/04 09:32:51;;;;;;;9.82;3.78;;;22.40;98.50;;;;;;5073963;28;20361;-76
2023/10/04 09:35:20;;;;;;;12.68;4.70;;;21.60;99.80;;;;;;5074725;28;20169;-76
2023/10/04 09:37:50;;;;;;;16.75;4.55;;;21.30;99.90;;;;;;5074468;28;20180;-75
2023/10/04 09:40:18;;;;;;;10.20;3.97;;;20.90;99.90;;;;;;5074342;28;20160;-76
2023/10/04 09:42:55;;;;;;;9.88;4.40;;;20.70;99.90;;;;;;5074153;28;20176;-77
2023/10/04 09:45:24;;;;;;;10.05;3.70;;;20.50;99.90;;;;;;5074267;28;20164;-76
2023/10/04 09:47:51;;;;;;;8.93;3.85;;;21.00;99.90;;;;;;5076591;28;20183;-78
2023/10/04 09:50:25;;;;;;;9.75;4.22;;;20.90;99.90;;;;;;5082976;28;20172;-78
2023/10/04 09:52:52;;;;;;;14.93;4.50;;;21.00;99.90;;;;;;5084307;28;20207;-76
2023/10/04 09:55:20;;;;;;;16.02;4.13;;;20.90;99.90;;;;;;5081675;28;20180;-77
2023/10/04 09:57:48;;;;;;;14.18;4.70;;;21.10;99.90;;;;;;5074715;28;20708;-79
2023/10/04 10:00:18;;;;;;;12.65;4.25;;;21.30;99.90;;;;;;5073927;28;20179;-79
2023/10/04 10:02:51;;;;;;;12.70;4.60;;;21.00;99.90;;;;;;5073964;28;20658;-80
2023/10/04 10:05:31;;;;;;;10.13;4.35;;;20.80;99.90;;;;;;5072491;28;20255;-77
2023/10/04 10:08:04;;;;;;;11.45;4.40;;;20.80;99.90;;;;;;5074069;28;20170;-79
2023/10/04 10:10:41;;;;;;;9.60;4.20;;;20.80;99.90;;;;;;5073179;28;20189;-77
2023/10/04 10:13:08;;;;;;;13.63;4.38;;;20.60;99.90;;;;;;5073528;28;20235;-78
2023/10/04 10:15:35;;;;;;;10.25;4.15;;;20.60;99.90;;;;;;5073554;28;20651;-77
2023/10/04 10:18:01;;;;;;;9.70;3.97;;;20.50;99.90;;;;;;5074196;28;20731;-78
2023/10/04 10:20:28;;;;;;;10.88;4.32;;;20.40;99.90;;;;;;5080881;28;20245;-78
2023/10/04 10:22:59;;;;;;;12.30;4.30;;;20.30;99.90;;;;;;5089862;28;20292;-76
2023/10/04 10:25:29;;;;;;;8.23;4.00;;;20.30;99.90;;;;;;5093056;28;20171;-78
2023/10/04 10:28:19;;;;;;;13.57;4.32;;;20.10;99.90;;;;;;5093694;28;20168;-80
2023/10/04 10:30:44;;;;;;;10.45;4.25;;;20.20;99.90;;;;;;5093183;28;20167;-81
2023/10/04 10:33:12;;;;;;;12.32;4.20;;;20.10;99.90;;;;;;5090681;28;20300;-79
2023/10/04 10:35:52;;;;;;;12.45;4.05;;;20.20;99.90;;;;;;5082057;28;20218;-79
2023/10/04 10:38:30;;;;;;;12.40;4.53;;;19.90;99.90;;;;;;5090721;28;20189;-81
2023/10/04 10:40:55;;;;;;;17.10;4.55;;;20.20;99.90;;;;;;5080319;28;20168;-80
2023/10/04 10:43:21;;;;;;;13.90;4.70;;;20.50;99.90;;;;;;5089989;28;20181;-76
2023/10/04 10:45:47;;;;;;;13.32;4.65;;;20.80;99.90;;;;;;5087248;28;20655;-80
2023/10/04 10:48:13;;;;;;;11.80;4.13;;;20.60;99.90;;;;;;5081935;28;20187;-77
2023/10/04 10:50:41;;;;;;;13.23;4.30;;;20.40;99.90;;;;;;5082843;28;20178;-78
2023/10/04 10:53:10;;;;;;;15.35;4.40;;;20.20;99.90;;;;;;5080326;28;20207;-79
2023/10/04 10:55:38;;;;;;;11.00;5.00;;;19.90;99.90;;;;;;5081712;28;20653;-77
2023/10/04 10:58:04;;;;;;;13.80;4.47;;;19.90;99.90;;;;;;5085577;28;20631;-77
2023/10/04 11:00:33;;;;;;;12.15;4.55;;;20.10;99.90;;;;;;5084721;28;20175;-76
2023/10/04 11:02:59;;;;;;;10.63;4.10;;;19.90;99.90;;;;;;5083231;28;20255;-77
2023/10/04 11:05:26;;;;;;;11.65;5.00;;;20.10;99.90;;;;;;5080281;28;20252;-79
2023/10/04 11:07:54;;;;;;;9.15;4.30;;;20.00;99.90;;;;;;5085275;28;20640;-79
2023/10/04 11:10:23;;;;;;;10.43;3.80;;;20.30;99.90;;;;;;5087971;28;20751;-79
2023/10/04 11:12:51;;;;;;;11.00;3.90;;;19.80;99.90;;;;;;5071334;28;20212;-79
2023/10/04 11:15:20;;;;;;;10.15;3.60;;;19.50;99.90;;;;;;5072952;28;20636;-78
2023/10/04 11:17:46;;;;;;;11.25;4.38;;;19.30;99.90;;;;;;5072517;28;20176;-77
2023/10/04 11:20:14;;;;;;;10.95;3.80;;;19.40;99.90;;;;;;5072469;28;20169;-76
2023/10/04 11:22:44;;;;;;;9.38;4.20;;;19.20;99.90;;;;;;5071203;28;20235;-78
2023/10/04 11:25:11;;;;;;;7.93;3.75;;;19.30;99.90;;;;;;5072597;28;20173;-77
2023/10/04 11:27:40;;;;;;;9.48;3.80;;;19.50;99.90;;;;;;5072028;28;20183;-78
2023/10/04 11:30:08;;;;;;;7.82;3.78;;;19.60;99.90;;;;;;5071964;28;20184;-78
2023/10/04 11:32:34;;;;;;;8.38;4.00;;;19.70;99.90;;;;;;5087103;28;20349;-78
2023/10/04 11:35:09;;;;;;;9.20;3.70;;;19.80;99.90;;;;;;5078440;28;20221;-76
2023/10/04 11:37:42;;;;;;;9.50;3.80;;;19.70;99.90;;;;;;5082252;28;20258;-79
2023/10/04 11:40:16;;;;;;;8.38;3.22;;;19.80;99.90;;;;;;5081230;28;20632;-78
2023/10/04 11:42:42;;;;;;;12.07;3.42;;;20.00;99.90;;;;;;5078995;28;20168;-78
2023/10/04 11:45:24;;;;;;;9.98;3.20;;;19.90;99.90;;;;;;5086911;28;20729;-79
2023/10/04 11:48:03;;;;;;;9.93;3.40;;;20.00;99.90;;;;;;5092573;28;20258;-77
2023/10/04 11:50:42;;;;;;;9.13;3.42;;;19.80;99.90;;;;;;5094443;28;20251;-77
2023/10/04 11:53:08;;;;;;;7.32;3.05;;;19.70;99.90;;;;;;5097484;28;20211;-78
2023/10/04 11:55:37;;;;;;;11.52;3.10;;;19.30;99.90;;;;;;5099603;28;20171;-78
2023/10/04 11:58:07;;;;;;;11.05;3.55;;;19.40;99.90;;;;;;5099325;28;20182;-77
2023/10/04 12:00:33;;;;;;;6.60;3.17;;;19.20;99.90;;;;;;5098981;28;20164;-76
2023/10/04 12:02:59;;;;;;;7.32;3.60;;;19.40;99.90;;;;;;5098980;28;20537;-81
2023/10/04 12:05:26;;;;;;;8.75;3.80;;;19.50;99.90;;;;;;5098506;28;20160;-77
2023/10/04 12:07:51;;;;;;;9.25;3.10;;;19.90;99.90;;;;;;5099038;28;20642;-76
2023/10/04 12:10:18;;;;;;;10.57;3.67;;;19.80;99.90;;;;;;5099145;28;20192;-77
2023/10/04 12:12:44;;;;;;;7.15;3.33;;;20.10;99.90;;;;;;5099123;28;20229;-78
2023/10/04 12:15:10;;;;;;;8.27;3.47;;;20.10;99.90;;;;;;5099201;28;20172;-79
2023/10/04 12:17:36;;;;;;;13.90;3.67;;;20.10;99.90;;;;;;5092606;28;20560;-81
2023/10/04 12:20:04;;;;;;;9.70;3.33;;;20.00;99.90;;;;;;5076525;28;20206;-77
2023/10/04 12:22:30;;;;;;;12.68;3.83;;;19.90;99.90;;;;;;5078445;28;20216;-76
2023/10/04 12:24:56;;;;;;;7.57;3.72;;;20.00;99.90;;;;;;5078916;28;20172;-79
2023/10/04 12:27:24;;;;;;;5.32;3.10;;;20.00;99.90;;;;;;5079509;28;20532;-80
2023/10/04 12:29:50;;;;;;;6.68;3.50;;;20.20;99.90;;;;;;5084702;28;20203;-76
2023/10/04 12:32:19;;;;;;;8.82;3.58;;;20.40;99.90;;;;;;5092028;28;20726;-75
2023/10/04 12:34:45;;;;;;;7.88;3.28;;;20.50;99.90;;;;;;5096721;28;20160;-77
2023/10/04 12:37:12;;;;;;;9.10;3.53;;;20.30;99.90;;;;;;5081613;28;20188;-75
2023/10/04 12:39:38;;;;;;;6.82;3.25;;;20.10;99.90;;;;;;5078420;28;20157;-77
2023/10/04 12:42:04;;;;;;;12.13;3.70;;;20.30;99.90;;;;;;5093846;28;20179;-76
2023/10/04 12:44:30;;;;;;;12.40;3.55;;;20.40;99.90;;;;;;5098896;28;20232;-76
2023/10/04 12:46:58;;;;;;;11.63;3.58;;;20.50;99.90;;;;;;5098656;28;20229;-77
2023/10/04 12:49:24;;;;;;;9.25;3.35;;;20.50;99.90;;;;;;5098725;28;20172;-74
2023/10/04 12:51:50;;;;;;;11.45;3.92;;;20.30;99.90;;;;;;5098605;28;20191;-77
2023/10/04 12:54:18;;;;;;;7.65;3.03;;;20.30;99.90;;;;;;5098755;28;20168;-77